Seabrook, NH (03874)

9:53 PM EST on December 27, 2014 (GMT -0500)
Yankee Fisherman's Coop | Change Station
CLOSE
Current Station
Personal Weather Station
Location: Seabrook, NH
Elevation: 40 ft
Nearby Weather Stations

Elev 40 ft 42.89 °N, 70.82 °W | Updated 3 seconds ago

Partly Cloudy
Partly Cloudy
41.5 °F
Feels Like 42 °F
N
3.0
Wind Variable Wind from SSW
Gusts 6.0 mph

Today
High -- | Low -- °F
--% Chance of Precip.
Yesterday
High -- | Low -- °F
Precip. -- in
7:13 AM 4:15 PM
Waxing Crescent, 43% visible
Pressure 30.12 in
Visibility 10.0 miles
Clouds Few 5000 ft
Mostly Cloudy 25000 ft
Windchill 42 °F
Dew Point 34 °F
Humidity 76%
Rainfall 0.00 in
Snow Depth Not available.
UV 0 out of 12
Pollen .10 out of 12
Air Quality Not available.
Flu Activity Not available.
METAR KPSM 280058Z 00000KT 10SM FEW050 BKN250 02/M01 A3010 RMK AO2A SLP197 T00181012

More Conditions Fewer Conditions

Pressure 30.12 in
Visibility 10.0 miles
Clouds Few 5000 ft
Mostly Cloudy 25000 ft
Windchill 42 °F
Dew Point 34 °F
Humidity 76%
Rainfall 0.00 in
Snow Depth Not available.
UV 0 out of 12
Pollen .10 out of 12
Air Quality Not available.
Flu Activity Not available.
METAR KPSM 280058Z 00000KT 10SM FEW050 BKN250 02/M01 A3010 RMK AO2A SLP197 T00181012

More Conditions Fewer Conditions

10-Day Weather Forecast

Almanac

Astronomy

Dec. 27, 2014 Rise Set
Actual Time
Civil Twilight
Nautical Twilight
Astronomical Twilight
Moon
Length of Visible Light
Length of Day
Tomorrow will be .
, % of the Moon is Illuminated

Today's Extremes

State Highs State Lows

Community

WunderPhotos

Upload Photos

1,781,144 photos uploaded!

WunderBlogs® & News

Nearby

Air Quality

  Air Quality AQ Index Pollutant
Not available.

Snow Depth

Station Depth Elevation

Earthquake Activity

City Distance Mag. Time & Date
Minimum magnitude displayed is 2.5.

Coastal Water Temperatures

Place Temperature

Nearby Weather Stations